Stormwatcher's Retreat Logo




                  Temp     Hi    Low   Out    Dew  Wind  Wind   Wind    Hi    Hi   Wind   Heat    THW   THSW                Rain  Solar   Solar Hi Solar   UV    UV    Hi     Heat    Cool    In     In    In     In     In   In Air          Wind  Wind    ISS   Arc.
  Date    Time     Out   Temp   Temp   Hum    Pt. Speed   Dir    Run Speed   Dir  Chill  Index  Index  Index   Bar    Rain  Rate   Rad.  Energy    Rad.  Index  Dose   UV     D-D     D-D    Temp   Hum    Dew   Heat    EMC Density     ET   Samp   Tx   Recept  Int.
------------------------------------------------------------------------------------------------------------------------------------------------------------------------------------------------------------------------------------------------------------------------
10/25/21 12:10a   56.0   56.1   56.0    79   49.6  23.0   SSW   3.83  42.0     N   48.0   55.6   47.6   45.7  29.307  0.00  0.00     0     0.00      0     0.0  0.00   0.0   0.063   0.000   69.2    53   51.3   68.0   9.87  .0725    0.000   201    7    100.0   10 
10/25/21 12:20a   56.0   56.1   55.9    79   49.6  21.0     S   3.50  46.0     S   48.4   55.6   48.0   46.0  29.317  0.00  0.00     0     0.00      0     0.0  0.00   0.0   0.063   0.000   69.2    53   51.3   68.0   9.87  .0726    0.000   204    7    100.0   10 
10/25/21 12:30a   56.0   56.0   55.9    79   49.6  21.0   SSW   3.50  35.0     S   48.4   55.6   48.0   46.0  29.318  0.00  0.00     0     0.00      0     0.0  0.00   0.0   0.063   0.000   69.1    53   51.2   67.9   9.87  .0726    0.000   203    7    100.0   10 
10/25/21 12:40a   55.9   56.0   55.9    80   49.8  23.0   SSW   3.83  40.0     S   47.9   55.6   47.6   45.7  29.323  0.00  0.00     0     0.00      0     0.0  0.00   0.0   0.063   0.000   69.1    53   51.2   67.9   9.87  .0726    0.000   202    7    100.0   10 
10/25/21 12:50a   55.8   55.9   55.8    79   49.4  23.0   SSW   3.83  42.0   SSW   47.8   55.4   47.4   45.5  29.320  0.00  0.00     0     0.00      0     0.0  0.00   0.0   0.064   0.000   69.1    53   51.2   67.9   9.87  .0726    0.000   202    7    100.0   10 
10/25/21  1:00a   55.8   55.9   55.7    80   49.7  23.0   SSW   3.83  40.0     S   47.8   55.5   47.5   45.6  29.325  0.00  0.00     0     0.00      0     0.0  0.00   0.0   0.064   0.000   69.1    53   51.2   67.9   9.87  .0726    0.003   204    7    100.0   10 
10/25/21  1:10a   55.9   55.9   55.7    80   49.8  23.0     S   3.83  42.0   SSE   47.9   55.6   47.6   45.7  29.328  0.00  0.00     0     0.00      0     0.0  0.00   0.0   0.063   0.000   69.0    53   51.2   67.8   9.87  .0726    0.000   204    7    100.0   10 
10/25/21  1:20a   55.8   55.9   55.8    80   49.7  22.0   SSW   3.67  40.0     N   48.0   55.5   47.7   45.8  29.328  0.00  0.00     0     0.00      0     0.0  0.00   0.0   0.064   0.000   69.0    53   51.2   67.8   9.87  .0726    0.000   201    7    100.0   10 
10/25/21  1:30a   55.9   55.9   55.8    80   49.8  23.0     S   3.83  39.0   SSW   47.9   55.6   47.6   45.7  29.334  0.00  0.00     0     0.00      0     0.0  0.00   0.0   0.063   0.000   69.0    53   51.2   67.8   9.87  .0726    0.000   202    7    100.0   10 
10/25/21  1:40a   55.9   56.0   55.9    80   49.8  21.0     S   3.50  36.0     N   48.3   55.6   48.0   46.0  29.339  0.00  0.00     0     0.00      0     0.0  0.00   0.0   0.063   0.000   68.9    53   51.1   67.8   9.87  .0727    0.000   204    7    100.0   10 
10/25/21  1:50a   56.0   56.0   55.9    79   49.6  22.0   SSW   3.67  40.0   SSW   48.2   55.6   47.8   45.9  29.340  0.00  0.00     0     0.00      0     0.0  0.00   0.0   0.063   0.000   68.9    53   51.1   67.8   9.87  .0727    0.000   203    7    100.0   10 
10/25/21  2:00a   56.0   56.1   56.0    80   49.9  23.0   SSW   3.83  50.0     S   48.0   55.7   47.7   45.8  29.345  0.00  0.00     0     0.00      0     0.0  0.00   0.0   0.063   0.000   68.8    53   51.0   67.7   9.87  .0727    0.003   203    7    100.0   10 
10/25/21  2:10a   56.1   56.1   56.0    80   50.0  23.0   SSW   3.83  46.0   SSE   48.1   55.8   47.8   45.9  29.349  0.00  0.00     0     0.00      0     0.0  0.00   0.0   0.062   0.000   68.8    53   51.0   67.7   9.87  .0727    0.000   204    7    100.0   10 
10/25/21  2:20a   56.0   56.1   56.0    81   50.3  23.0   SSW   3.83  49.0     S   48.0   55.7   47.7   45.8  29.357  0.00  0.00     0     0.00      0     0.0  0.00   0.0   0.063   0.000   68.8    53   51.0   67.7   9.87  .0727    0.000   204    7    100.0   10 
10/25/21  2:30a   56.1   56.1   56.0    81   50.3  24.0     S   4.00  46.0     N   48.0   55.8   47.7   45.9  29.366  0.00  0.00     0     0.00      0     0.0  0.00   0.0   0.062   0.000   68.7    53   50.9   67.6   9.88  .0728    0.000   202    7    100.0   10 
10/25/21  2:40a   55.9   56.1   55.9    81   50.2  22.0     S   3.67  46.0     N   48.1   55.6   47.8   45.9  29.365  0.00  0.00     0     0.00      0     0.0  0.00   0.0   0.063   0.000   68.7    53   50.9   67.6   9.88  .0728    0.000   203    7    100.0   10 
10/25/21  2:50a   55.9   55.9   55.8    81   50.2  22.0   SSW   3.67  37.0   SSW   48.1   55.6   47.8   45.9  29.362  0.00  0.00     0     0.00      0     0.0  0.00   0.0   0.063   0.000   68.7    53   50.9   67.6   9.88  .0728    0.000   201    7    100.0   10 
10/25/21  3:00a   55.9   55.9   55.8    81   50.2  24.0   SSW   4.00  37.0   SSW   47.8   55.6   47.5   45.7  29.367  0.00  0.00     0     0.00      0     0.0  0.00   0.0   0.063   0.000   68.6    53   50.8   67.5   9.88  .0728    0.003   203    7    100.0   10 
10/25/21  3:10a   56.0   56.0   55.9    81   50.3  25.0     S   4.17  40.0     N   47.7   55.7   47.4   45.6  29.376  0.00  0.00     0     0.00      0     0.0  0.00   0.0   0.063   0.000   68.6    53   50.8   67.5   9.88  .0728    0.000   202    7    100.0   10 
10/25/21  3:20a   55.9   56.0   55.8    82   50.5  23.0     S   3.83  45.0   SSW   47.9   55.7   47.7   45.8  29.379  0.00  0.00     0     0.00      0     0.0  0.00   0.0   0.063   0.000   68.6    53   50.8   67.5   9.88  .0728    0.000   204    7    100.0   10 
10/25/21  3:30a   55.8   56.0   55.8    81   50.1  24.0     S   4.00  48.0    SW   47.7   55.5   47.4   45.6  29.384  0.00  0.00     0     0.00      0     0.0  0.00   0.0   0.064   0.000   68.5    53   50.7   67.4   9.88  .0729    0.000   200    7    100.0   10 
10/25/21  3:40a   55.8   55.9   55.7    82   50.4  23.0   SSW   3.83  43.0   SSE   47.8   55.6   47.6   45.7  29.382  0.00  0.00     0     0.00      0     0.0  0.00   0.0   0.064   0.000   68.5    53   50.7   67.4   9.88  .0729    0.000   202    7    100.0   10 
10/25/21  3:50a   55.9   55.9   55.7    81   50.2  24.0   SSW   4.00  44.0     S   47.8   55.6   47.5   45.7  29.385  0.00  0.00     0     0.00      0     0.0  0.00   0.0   0.063   0.000   68.4    53   50.6   67.3   9.88  .0729    0.000   204    7    100.0   10 
10/25/21  4:00a   55.8   55.9   55.8    81   50.1  23.0   SSW   3.83  36.0   SSW   47.8   55.5   47.5   45.6  29.383  0.00  0.00     0     0.00      0     0.0  0.00   0.0   0.064   0.000   68.4    53   50.6   67.3   9.88  .0729    0.003   202    7    100.0   10 
10/25/21  4:10a   55.7   55.8   55.7    81   50.0  23.0     S   3.83  43.0     N   47.7   55.4   47.4   45.5  29.390  0.00  0.00     0     0.00      0     0.0  0.00   0.0   0.065   0.000   68.4    53   50.6   67.3   9.88  .0729    0.000   204    7    100.0   10 
10/25/21  4:20a   55.8   55.8   55.7    81   50.1  22.0   SSW   3.67  40.0   SSE   48.0   55.5   47.7   45.8  29.392  0.00  0.00     0     0.00      0     0.0  0.00   0.0   0.064   0.000   68.4    53   50.6   67.3   9.88  .0729    0.000   203    7    100.0   10 
10/25/21  4:30a   55.6   55.8   55.6    81   49.9  22.0     S   3.67  39.0   SSE   47.8   55.3   47.5   45.6  29.396  0.00  0.00     0     0.00      0     0.0  0.00   0.0   0.065   0.000   68.3    53   50.5   67.3   9.88  .0729    0.000   204    7    100.0   10 
10/25/21  4:40a   55.6   55.7   55.6    81   49.9  22.0   SSW   3.67  37.0     S   47.8   55.3   47.5   45.6  29.390  0.00  0.00     0     0.00      0     0.0  0.00   0.0   0.065   0.000   68.3    53   50.5   67.3   9.88  .0729    0.000   202    7    100.0   10 
10/25/21  4:50a   55.7   55.8   55.6    81   50.0  23.0     S   3.83  42.0   SSW   47.7   55.4   47.4   45.5  29.395  0.00  0.00     0     0.00      0     0.0  0.00   0.0   0.065   0.000   68.2    53   50.4   67.2   9.89  .0729    0.000   203    7    100.0   10 
10/25/21  5:00a   55.8   55.8   55.7    81   50.1  21.0   SSW   3.50  36.0   SSW   48.2   55.5   47.9   45.9  29.404  0.00  0.00     0     0.00      0     0.0  0.00   0.0   0.064   0.000   68.2    53   50.4   67.2   9.89  .0730    0.003   205    7    100.0   10 
10/25/21  5:10a   55.7   55.8   55.7    81   50.0  20.0   SSW   3.33  37.0     S   48.3   55.4   48.0   46.0  29.407  0.00  0.00     0     0.00      0     0.0  0.00   0.0   0.065   0.000   68.1    53   50.3   67.1   9.89  .0730    0.000   202    7    100.0   10 
10/25/21  5:20a   55.7   55.8   55.7    82   50.3  22.0     S   3.67  36.0     N   47.9   55.5   47.7   45.8  29.406  0.00  0.00     0     0.00      0     0.0  0.00   0.0   0.065   0.000   68.1    53   50.3   67.1   9.89  .0730    0.000   203    7    100.0   10 
10/25/21  5:30a   55.7   55.8   55.6    82   50.3  21.0   SSW   3.50  43.0   SSE   48.1   55.5   47.9   45.9  29.412  0.00  0.00     0     0.00      0     0.0  0.00   0.0   0.065   0.000   68.1    53   50.3   67.1   9.89  .0730    0.000   202    7    100.0   10 
10/25/21  5:40a   55.7   55.7   55.6    82   50.3  21.0   SSW   3.50  40.0     S   48.1   55.5   47.9   45.9  29.412  0.00  0.00     0     0.00      0     0.0  0.00   0.0   0.065   0.000   68.1    53   50.3   67.1   9.89  .0730    0.000   201    7    100.0   10 
10/25/21  5:50a   55.7   55.7   55.6    82   50.3  21.0   SSW   3.50  48.0   SSE   48.1   55.5   47.9   45.9  29.412  0.00  0.00     0     0.00      0     0.0  0.00   0.0   0.065   0.000   68.0    53   50.2   67.0   9.89  .0730    0.000   202    7    100.0   10 
10/25/21  6:00a   55.6   55.7   55.6    81   49.9  20.0     S   3.33  39.0   SSE   48.2   55.3   47.9   45.9  29.416  0.00  0.00     0     0.00      0     0.0  0.00   0.0   0.065   0.000   68.0    53   50.2   67.0   9.89  .0730    0.003   204    7    100.0   10 
10/25/21  6:10a   55.6   55.7   55.6    81   49.9  20.0     S   3.33  38.0   SSW   48.2   55.3   47.9   45.9  29.425  0.00  0.00     0     0.00      0     0.0  0.00   0.0   0.065   0.000   67.9    53   50.1   66.9   9.89  .0731    0.000   203    7    100.0   10 
10/25/21  6:20a   55.6   55.7   55.6    81   49.9  19.0     S   3.17  38.0    SW   48.4   55.3   48.1   46.0  29.425  0.00  0.00     0     0.00      0     0.0  0.00   0.0   0.065   0.000   67.9    53   50.1   66.9   9.89  .0731    0.000   202    7    100.0   10 
10/25/21  6:30a   55.7   55.7   55.6    81   50.0  20.0   SSW   3.33  32.0     N   48.3   55.4   48.0   46.0  29.437  0.00  0.00     0     0.00      0     0.0  0.00   0.0   0.065   0.000   67.9    53   50.1   66.9   9.89  .0731    0.000   204    7    100.0   10 
10/25/21  6:40a   55.7   55.7   55.6    81   50.0  20.0   SSW   3.33  36.0     S   48.3   55.4   48.0   46.0  29.434  0.00  0.00     0     0.00      0     0.0  0.00   0.0   0.065   0.000   67.9    53   50.1   66.9   9.89  .0731    0.000   202    7    100.0   10 
10/25/21  6:50a   55.6   55.7   55.5    81   49.9  19.0   SSW   3.17  34.0     S   48.4   55.3   48.1   46.0  29.431  0.00  0.00     0     0.00      0     0.0  0.00   0.0   0.065   0.000   68.0    53   50.2   67.0   9.89  .0731    0.000   203    7    100.0   10 
10/25/21  7:00a   55.6   55.6   55.5    81   49.9  19.0     N   3.17  31.0     S   48.4   55.3   48.1   46.0  29.433  0.00  0.00     0     0.00      0     0.0  0.00   0.0   0.065   0.000   68.1    53   50.3   67.1   9.89  .0730    0.002   204    7    100.0   10 
10/25/21  7:10a   55.4   55.7   55.4    81   49.7  18.0   SSW   3.00  38.0   SSE   48.4   55.1   48.1   46.0  29.444  0.00  0.00     0     0.00      0     0.0  0.00   0.0   0.067   0.000   68.2    53   50.4   67.2   9.89  .0731    0.000   202    7    100.0   10 
10/25/21  7:20a   55.5   55.6   55.4    81   49.8  20.0   SSW   3.33  36.0     S   48.1   55.2   47.8   45.8  29.444  0.00  0.00     0     0.00      0     0.0  0.00   0.0   0.066   0.000   68.4    53   50.6   67.3   9.88  .0730    0.000   204    7    100.0   10 
10/25/21  7:30a   55.5   55.6   55.5    81   49.8  21.0     S   3.50  40.0     S   47.8   55.2   47.5   45.5  29.447  0.00  0.00     0     0.00      0     0.0  0.00   0.0   0.066   0.000   68.5    53   50.7   67.4   9.88  .0730    0.000   203    7    100.0   10 
10/25/21  7:40a   55.5   55.6   55.5    82   50.1  20.0   SSW   3.33  31.0    SW   48.1   55.3   47.9   45.9  29.449  0.00  0.00     0     0.00      0     0.0  0.00   0.0   0.066   0.000   68.7    53   50.9   67.6   9.88  .0730    0.000   204    7    100.0   10 
10/25/21  7:50a   55.5   55.6   55.4    82   50.1  22.0   SSW   3.67  35.0     S   47.7   55.3   47.5   45.6  29.454  0.00  0.00     0     0.00      0     0.0  0.00   0.0   0.066   0.000   68.8    53   51.0   67.7   9.87  .0730    0.000   199    7    100.0   10 
10/25/21  8:00a   55.4   55.5   55.4    82   50.0  21.0     S   3.50  35.0     S   47.7   55.2   47.5   45.5  29.456  0.00  0.00     0     0.00      0     0.0  0.00   0.0   0.067   0.000   68.8    53   51.0   67.7   9.87  .0730    0.003   203    7    100.0   10 
10/25/21  8:10a   55.3   55.4   55.3    82   49.9  19.0     S   3.17  38.0     N   48.1   55.1   47.9   45.9  29.461  0.00  0.00     3     0.04      7     0.0  0.00   0.0   0.067   0.000   69.0    53   51.2   67.8   9.87  .0730    0.000   203    7    100.0   10 
10/25/21  8:20a   55.4   55.4   55.3    82   50.0  19.0   SSW   3.17  34.0     N   48.2   55.2   48.0   46.1  29.466  0.00  0.00    10     0.14     16     0.0  0.00   0.0   0.067   0.000   69.1    53   51.2   67.9   9.87  .0730    0.000   203    7    100.0   10 
10/25/21  8:30a   55.6   55.6   55.4    82   50.2  20.0     S   3.33  34.0     N   48.2   55.4   48.0   46.3  29.469  0.00  0.00    18     0.26     28     0.0  0.00   0.0   0.065   0.000   69.2    53   51.3   68.0   9.87  .0729    0.000   203    7    100.0   10 
10/25/21  8:40a   55.6   55.7   55.6    82   50.2  21.0   SSW   3.50  35.0     N   48.0   55.4   47.8   46.4  29.473  0.00  0.00    35     0.50     44     0.0  0.00   0.0   0.065   0.000   69.4    53   51.5   68.1   9.86  .0729    0.000   203    7    100.0   10 
10/25/21  8:50a   55.5   55.7   55.5    82   50.1  21.0     S   3.50  35.0   SSE   47.8   55.3   47.6   47.2  29.479  0.00  0.00    26     0.37     35     0.0  0.00   0.0   0.066   0.000   69.5    53   51.6   68.2   9.86  .0729    0.000   203    7    100.0   10 
10/25/21  9:00a   55.6   55.7   55.6    82   50.2  21.0   SSW   3.50  38.0     N   48.0   55.4   47.8   48.1  29.478  0.00  0.00    51     0.73     72     0.0  0.00   0.0   0.065   0.000   69.6    53   51.7   68.3   9.86  .0729    0.003   204    7    100.0   10 
10/25/21  9:10a   55.6   55.7   55.5    82   50.2  20.0   SSW   3.33  34.0    SW   48.2   55.4   48.0   48.1  29.485  0.00  0.00    47     0.67     62     0.0  0.00   0.0   0.065   0.000   69.6    53   51.7   68.3   9.86  .0729    0.000   204    7    100.0   10 
10/25/21  9:20a   55.5   55.7   55.5    83   50.4  20.0     S   3.33  36.0   SSE   48.1   55.3   47.9   48.0  29.494  0.00  0.00    49     0.70     63     0.0  0.00   0.0   0.066   0.000   69.6    53   51.7   68.3   9.86  .0729    0.000   202    7    100.0   10 
10/25/21  9:30a   55.5   55.5   55.4    82   50.1  20.0   SSW   3.33  36.0     S   48.1   55.3   47.9   48.8  29.494  0.00  0.00    78     1.12     95     0.0  0.00   0.0   0.066   0.000   69.6    53   51.7   68.3   9.86  .0729    0.000   202    7    100.0   10 
10/25/21  9:40a   55.3   55.5   55.3    83   50.2  20.0   SSW   3.33  36.0     N   47.8   55.1   47.6   48.1  29.500  0.00  0.00    64     0.92     81     0.0  0.00   0.0   0.067   0.000   69.6    53   51.7   68.3   9.86  .0730    0.000   202    7    100.0   10 
10/25/21  9:50a   54.8   55.3   54.8    84   50.1  21.0   SSW   3.50  37.0     N   47.1   54.7   47.0   47.2  29.505  0.00  0.00    55     0.79     90     0.0  0.00   0.0   0.071   0.000   69.5    53   51.6   68.2   9.86  .0730    0.000   202    7    100.0   10 
10/25/21 10:00a   55.1   55.1   54.8    84   50.4  20.0   SSW   3.33  42.0   SSE   47.6   55.0   47.5   48.7  29.511  0.00  0.00    96     1.38    118     0.0  0.00   0.0   0.069   0.000   69.5    53   51.6   68.2   9.86  .0730    0.004   202    7    100.0   10 
10/25/21 10:10a   55.1   55.1   54.9    84   50.4  20.0     S   3.33  29.0   SSE   47.6   55.0   47.5   48.1  29.518  0.00  0.00    74     1.06    128     0.0  0.00   0.0   0.069   0.000   69.5    53   51.6   68.2   9.86  .0730    0.000   205    7    100.0   10 
10/25/21 10:20a   54.7   55.2   54.7    85   50.3  19.0   SSW   3.17  38.0   SSW   47.4   54.6   47.3   47.7  29.522  0.00  0.00    70     1.00    123     0.0  0.00   0.0   0.072   0.000   69.5    53   51.6   68.2   9.86  .0730    0.000   202    7    100.0   10 
10/25/21 10:30a   54.4   54.8   54.3    87   50.6  21.0   SSW   3.50  42.0   SSE   46.6   54.4   46.6   47.5  29.522  0.01  0.00    96     1.38    141     0.2  0.01   0.6   0.074   0.000   69.5    53   51.6   68.2   9.86  .0730    0.000   203    7    100.0   10 
10/25/21 10:40a   54.2   54.3   54.2    88   50.7  20.0   SSW   3.33  37.0   SSE   46.6   54.2   46.6   48.7  29.530  0.00  0.00   154     2.21    186     0.6  0.04   0.8   0.075   0.000   69.5    53   51.6   68.2   9.86  .0731    0.000   200    7    100.0   10 
10/25/21 10:50a   54.3   54.3   54.2    90   51.4  19.0     S   3.17  28.0    SE   46.9   54.4   47.0   49.3  29.533  0.00  0.00   159     2.28    211     0.5  0.04   0.8   0.074   0.000   69.5    53   51.6   68.2   9.86  .0731    0.000   201    7    100.0   10 
10/25/21 11:00a   54.1   54.3   54.0    90   51.2  20.0   SSW   3.33  33.0     S   46.5   54.2   46.6   48.6  29.536  0.00  0.00   152     2.18    174     0.7  0.05   0.8   0.076   0.000   69.5    53   51.6   68.2   9.86  .0731    0.004   201    7    100.0   10 
10/25/21 11:10a   54.4   54.4   54.1    90   51.5  21.0   SSW   3.50  32.0    SW   46.6   54.5   46.7   47.9  29.537  0.00  0.00   117     1.68    123     0.7  0.05   0.8   0.074   0.000   69.5    53   51.6   68.2   9.86  .0731    0.000   203    7    100.0   10 
10/25/21 11:20a   54.5   54.6   54.4    90   51.6  23.0   SSW   3.83  38.0     N   46.3   54.6   46.4   46.5  29.549  0.01  0.00    67     0.96    114     0.1  0.01   0.7   0.073   0.000   69.5    53   51.6   68.2   9.86  .0731    0.000   202    7    100.0   10 
10/25/21 11:30a   54.1   54.5   54.1    91   51.5  25.0   SSW   4.17  41.0   SSE   45.5   54.2   45.6   46.1  29.558  0.00  0.00    89     1.28    116     0.3  0.02   0.6   0.076   0.000   69.4    53   51.5   68.1   9.86  .0731    0.000   201    7    100.0   10 
10/25/21 11:40a   53.9   54.1   53.8    92   51.6  21.0   SSW   3.50  34.0   SSW   46.1   54.0   46.2   47.0  29.565  0.00  0.00   102     1.46    120     0.4  0.03   0.6   0.077   0.000   69.3    53   51.4   68.1   9.86  .0732    0.000   202    7    100.0   10 
10/25/21 11:50a   53.9   53.9   53.8    93   51.9  21.0   SSW   3.50  38.0    SW   46.1   54.1   46.3   47.3  29.571  0.01  0.00   116     1.66    142     0.8  0.06   0.9   0.077   0.000   69.3    53   51.4   68.1   9.86  .0732    0.000   203    7    100.0   10 
10/25/21 12:00p   53.8   53.9   53.8    93   51.8  22.0   SSW   3.67  34.0   SSW   45.8   54.0   46.0   46.1  29.576  0.01  0.04    72     1.03    144     0.3  0.02   0.8   0.078   0.000   69.3    53   51.4   68.1   9.86  .0732    0.003   203    7    100.0   10 
10/25/21 12:10p   53.6   53.8   53.5    94   51.9  20.0   SSW   3.33  34.0     S   45.9   53.8   46.1   45.5  29.584  0.02  0.14    39     0.56     56     0.0  0.00   0.0   0.079   0.000   69.3    53   51.4   68.1   9.86  .0732    0.000   202    7    100.0   10 
10/25/21 12:20p   53.9   53.9   53.6    94   52.2  22.0   SSW   3.67  34.0    SW   45.9   54.1   46.1   46.2  29.586  0.01  0.12    71     1.02    144     0.2  0.01   0.7   0.077   0.000   69.2    53   51.3   68.0   9.87  .0732    0.000   203    7    100.0   10 
10/25/21 12:30p   53.9   54.0   53.8    94   52.2  19.0   SSW   3.17  32.0   SSW   46.5   54.1   46.7   49.9  29.593  0.00  0.04   240     3.44    279     1.3  0.09   1.3   0.077   0.000   69.2    53   51.3   68.0   9.87  .0733    0.000   201    7    100.0   10 
10/25/21 12:40p   54.0   54.0   53.9    94   52.3  22.0   SSW   3.67  33.0   SSE   46.0   54.2   46.2   48.0  29.588  0.00  0.00   172     2.47    204     1.2  0.09   1.3   0.076   0.000   69.3    53   51.4   68.1   9.86  .0732    0.000   204    7    100.0   10 
10/25/21 12:50p   53.7   54.0   53.6    94   52.0  19.0   SSW   3.17  33.0   SSE   46.3   53.9   46.5   46.8  29.591  0.00  0.00    84     1.20    120     0.7  0.05   0.9   0.078   0.000   69.4    53   51.5   68.1   9.86  .0732    0.000   204    7    100.0   10 
10/25/21  1:00p   53.5   53.7   53.3    95   52.1  18.0   SSW   3.00  40.0     S   46.3   53.8   46.6   46.0  29.587  0.11  3.16    40     0.57     72     0.1  0.01   0.6   0.080   0.000   69.4    53   51.5   68.1   9.86  .0732    0.003   202    7    100.0   10 
10/25/21  1:10p   53.7   53.8   53.5    95   52.3  23.0   SSW   3.83  38.0   SSE   45.4   53.9   45.6   46.4  29.601  0.01  0.24   117     1.68    151     0.6  0.04   0.8   0.078   0.000   69.5    53   51.6   68.2   9.86  .0732    0.000   204    7    100.0   10 
10/25/21  1:20p   53.6   53.8   53.6    95   52.2  19.0   SSW   3.17  31.0   SSW   46.2   53.8   46.4   46.2  29.598  0.02  0.47    58     0.83    127     0.1  0.01   0.7   0.079   0.000   69.6    53   51.7   68.3   9.86  .0732    0.000   200    7    100.0   10 
10/25/21  1:30p   53.5   53.6   53.5    95   52.1  20.0   SSW   3.33  30.0   SSW   45.8   53.8   46.1   46.0  29.600  0.01  0.22    62     0.89     84     0.0  0.00   0.0   0.080   0.000   69.7    54   52.3   68.4   9.96  .0732    0.000   204    7    100.0   10 
10/25/21  1:40p   53.5   53.7   53.5    95   52.1  19.0   SSW   3.17  34.0   SSE   46.1   53.8   46.4   47.5  29.607  0.00  0.00   125     1.79    156     0.6  0.04   0.8   0.080   0.000   69.7    54   52.3   68.4   9.96  .0732    0.000   202    7    100.0   10 
10/25/21  1:50p   53.9   53.9   53.5    95   52.5  20.0   SSW   3.33  32.0     S   46.3   54.1   46.5   46.5  29.614  0.02  0.19    68     0.97    134     0.3  0.02   0.7   0.077   0.000   69.7    54   52.3   68.4   9.96  .0732    0.000   203    7    100.0   10 
10/25/21  2:00p   53.7   54.0   53.6    95   52.3  25.0   SSW   4.17  42.0     S   45.0   53.9   45.2   44.4  29.630  0.04  0.60    23     0.33     33     0.0  0.00   0.0   0.078   0.000   69.7    54   52.3   68.4   9.96  .0732    0.002   202    7    100.0   10 
10/25/21  2:10p   52.3   53.7   52.3    94   50.6  22.0   SSW   3.67  30.0   SSE   44.0   52.6   44.3   44.0  29.635  0.01  0.60    55     0.79     76     0.0  0.00   0.0   0.088   0.000   69.7    54   52.3   68.4   9.96  .0733    0.000   204    7    100.0   10 
10/25/21  2:20p   51.9   52.3   51.9    95   50.5  19.0   SSW   3.17  29.0   SSE   44.2   52.2   44.5   43.6  29.637  0.02  0.10    24     0.34     35     0.0  0.00   0.0   0.091   0.000   69.6    54   52.2   68.3   9.97  .0733    0.000   202    7    100.0   10 
10/25/21  2:30p   51.9   51.9   51.7    95   50.5  18.0   SSW   3.00  27.0   SSW   44.5   52.2   44.8   43.7  29.654  0.03  0.65    16     0.23     18     0.0  0.00   0.0   0.091   0.000   69.6    54   52.2   68.3   9.97  .0733    0.000   204    7    100.0   10 
10/25/21  2:40p   52.1   52.2   51.6    95   50.7  14.0   SSW   2.33  26.0     N   45.9   52.4   46.2   44.9  29.661  0.13  1.95    13     0.19     16     0.0  0.00   0.0   0.090   0.000   69.5    54   52.1   68.3   9.97  .0734    0.000   202    7    100.0   10 
10/25/21  2:50p   51.9   52.3   51.9    95   50.5  15.0   SSW   2.50  22.0   SSW   45.4   52.2   45.7   44.7  29.654  0.05  0.66    23     0.33     40     0.0  0.00   0.0   0.091   0.000   69.5    54   52.1   68.3   9.97  .0733    0.000   202    7    100.0   10 
10/25/21  3:00p   53.3   53.3   51.9    96   52.2  15.0   SSW   2.50  22.0   SSE   46.9   53.6   47.2   47.0  29.653  0.02  0.19    57     0.82     74     0.0  0.00   0.0   0.081   0.000   69.5    54   52.1   68.3   9.97  .0733    0.001   200    7    100.0   10 
10/25/21  3:10p   51.7   53.8   51.7    94   50.0  20.0    SW   3.33  28.0   SSW   43.8   52.0   44.1   43.1  29.676  0.10  1.25    16     0.23     21     0.0  0.00   0.0   0.092   0.000   69.6    54   52.2   68.3   9.97  .0734    0.000   200    7    100.0   10 
10/25/21  3:20p   51.7   51.9   51.6    95   50.3  15.0   SSW   2.50  21.0     S   45.1   52.0   45.4   44.3  29.677  0.02  0.80    18     0.26     23     0.0  0.00   0.0   0.092   0.000   69.6    54   52.2   68.3   9.97  .0734    0.000   202    7    100.0   10 
10/25/21  3:30p   51.9   52.0   51.7    95   50.5  15.0   SSW   2.50  24.0   SSE   45.4   52.2   45.7   44.7  29.682  0.02  0.13    23     0.33     30     0.0  0.00   0.0   0.091   0.000   69.5    54   52.1   68.3   9.97  .0734    0.000   199    7    100.0   10 
10/25/21  3:40p   52.3   52.3   51.9    96   51.2  11.0   SSW   1.83  16.0     S   47.4   52.6   47.7   47.3  29.680  0.01  0.13    46     0.66     83     0.0  0.00   0.0   0.088   0.000   69.5    54   52.1   68.3   9.97  .0734    0.000   202    7    100.0   10 
10/25/21  3:50p   52.8   52.8   52.3    96   51.7  11.0   SSW   1.83  17.0   SSE   48.0   53.1   48.3   49.3  29.681  0.00  0.00    94     1.35    111     0.0  0.00   0.0   0.085   0.000   69.5    54   52.1   68.3   9.97  .0734    0.000   204    7    100.0   10 
10/25/21  4:00p   53.2   53.2   52.7    96   52.1  13.0   SSW   2.17  19.0   SSE   47.5   53.5   47.8   48.3  29.684  0.00  0.00    76     1.09     95     0.0  0.00   0.0   0.082   0.000   69.6    54   52.2   68.3   9.97  .0734    0.001   203    7    100.0   10 
10/25/21  4:10p   53.9   53.9   53.1    96   52.8  14.0   SSW   2.33  22.0   SSW   48.0   54.1   48.2   48.0  29.683  0.00  0.00    50     0.72     60     0.0  0.00   0.0   0.077   0.000   69.5    54   52.1   68.3   9.97  .0734    0.000   202    7    100.0   10 
10/25/21  4:20p   54.1   54.2   53.9    96   53.0  17.0   SSW   2.83  22.0   SSE   47.2   54.3   47.4   47.0  29.687  0.00  0.00    39     0.56     56     0.0  0.00   0.0   0.076   0.000   69.5    54   52.1   68.3   9.97  .0734    0.000   200    7    100.0   10 
10/25/21  4:30p   54.1   54.2   54.0    96   53.0  17.0   SSW   2.83  25.0   SSE   47.2   54.3   47.4   47.0  29.694  0.01  0.00    38     0.54     53     0.0  0.00   0.0   0.076   0.000   69.6    54   52.2   68.3   9.97  .0734    0.000   203    7    100.0   10 
10/25/21  4:40p   53.8   54.1   53.8    96   52.7  16.0   SSW   2.67  24.0   SSE   47.2   54.1   47.5   47.4  29.701  0.00  0.00    49     0.70     58     0.0  0.00   0.0   0.078   0.000   69.7    54   52.3   68.4   9.96  .0734    0.000   200    7    100.0   10 
10/25/21  4:50p   53.7   53.9   53.6    96   52.6  16.0   SSW   2.67  23.0   SSE   47.1   54.0   47.4   47.5  29.702  0.00  0.00    53     0.76     56     0.0  0.00   0.0   0.078   0.000   69.7    54   52.3   68.4   9.96  .0734    0.000   202    7    100.0   10 
10/25/21  5:00p   53.7   53.7   53.5    96   52.6  14.0   SSW   2.33  22.0   SSE   47.7   54.0   48.0   48.2  29.706  0.00  0.00    53     0.76     60     0.0  0.00   0.0   0.078   0.000   69.6    54   52.2   68.3   9.97  .0735    0.001   202    7    100.0   10 
10/25/21  5:10p   53.5   53.7   53.5    96   52.4  12.0   SSW   2.00  20.0     N   48.3   53.8   48.6   50.3  29.711  0.00  0.00    97     1.39    149     0.0  0.00   0.0   0.080   0.000   69.5    54   52.1   68.3   9.97  .0735    0.000   205    7    100.0   10 
10/25/21  5:20p   53.7   53.7   53.4    96   52.6  13.0   SSW   2.17  21.0   SSW   48.1   54.0   48.4   51.4  29.715  0.00  0.00   141     2.02    195     0.0  0.00   0.0   0.078   0.000   69.5    54   52.1   68.3   9.97  .0735    0.000   201    7    100.0   10 
10/25/21  5:30p   53.2   53.8   53.1    95   51.8  13.0   SSW   2.17  21.0     N   47.5   53.5   47.8   50.0  29.722  0.00  0.00   111     1.59    135     0.0  0.00   0.0   0.082   0.000   69.5    54   52.1   68.3   9.97  .0735    0.000   203    7    100.0   10 
10/25/21  5:40p   53.0   53.1   52.7    95   51.6  11.0   SSW   1.83  20.0     S   48.2   53.3   48.5   49.8  29.726  0.00  0.00    77     1.10     91     0.0  0.00   0.0   0.083   0.000   69.5    54   52.1   68.3   9.97  .0735    0.000   203    7    100.0   10 
10/25/21  5:50p   53.2   53.2   53.0    95   51.8   9.0   SSW   1.50  18.0   SSW   49.6   53.5   49.9   50.6  29.729  0.00  0.00    59     0.85     65     0.0  0.00   0.0   0.082   0.000   69.5    54   52.1   68.3   9.97  .0735    0.000   204    7    100.0   10 
10/25/21  6:00p   53.7   53.7   53.2    95   52.3  11.0   SSW   1.83  21.0     S   49.0   53.9   49.2   48.9  29.730  0.00  0.00    32     0.46     56     0.0  0.00   0.0   0.078   0.000   69.5    54   52.1   68.3   9.97  .0735    0.002   198    7    100.0   10 
10/25/21  6:10p   54.3   54.4   53.8    95   52.9  15.0   SSW   2.50  22.0     S   48.1   54.5   48.3   46.6  29.732  0.00  0.00     6     0.09      9     0.0  0.00   0.0   0.074   0.000   69.6    54   52.2   68.3   9.97  .0735    0.000   200    7    100.0   10 
10/25/21  6:20p   54.4   54.4   54.2    95   53.0  12.0   SSW   2.00  21.0     S   49.3   54.6   49.5   47.5  29.735  0.00  0.00     0     0.00      0     0.0  0.00   0.0   0.074   0.000   69.7    54   52.3   68.4   9.96  .0735    0.000   202    7    100.0   10 
10/25/21  6:30p   54.4   54.4   54.3    95   53.0  13.0   SSW   2.17  20.0   SSW   48.9   54.6   49.1   47.2  29.739  0.00  0.00     0     0.00      0     0.0  0.00   0.0   0.074   0.000   69.7    54   52.3   68.4   9.96  .0735    0.000   204    7    100.0   10 
10/25/21  6:40p   54.3   54.4   54.3    95   52.9  13.0   SSW   2.17  23.0     S   48.8   54.5   49.0   47.1  29.744  0.00  0.00     0     0.00      0     0.0  0.00   0.0   0.074   0.000   69.8    54   52.4   68.5   9.96  .0735    0.000   202    7    100.0   10 
10/25/21  6:50p   54.3   54.4   54.3    95   52.9  13.0   SSW   2.17  25.0     S   48.8   54.5   49.0   47.1  29.746  0.00  0.00     0     0.00      0     0.0  0.00   0.0   0.074   0.000   69.8    54   52.4   68.5   9.96  .0735    0.000   201    7    100.0   10 
10/25/21  7:00p   54.3   54.3   54.2    95   52.9  13.0   SSW   2.17  19.0   SSW   48.8   54.5   49.0   47.1  29.755  0.00  0.00     0     0.00      0     0.0  0.00   0.0   0.074   0.000   69.9    54   52.5   68.5   9.95  .0735    0.001   205    7    100.0   10 
10/25/21  7:10p   54.2   54.3   54.2    95   52.8  13.0   SSW   2.17  22.0   SSW   48.6   54.4   48.8   46.9  29.756  0.00  0.00     0     0.00      0     0.0  0.00   0.0   0.075   0.000   69.9    54   52.5   68.5   9.95  .0735    0.000   203    7    100.0   10 
10/25/21  7:20p   54.2   54.3   54.1    94   52.5  12.0   SSW   2.00  21.0     S   49.1   54.4   49.3   47.3  29.764  0.00  0.00     0     0.00      0     0.0  0.00   0.0   0.075   0.000   69.9    54   52.5   68.5   9.95  .0736    0.000   202    7    100.0   10 
10/25/21  7:30p   54.2   54.2   54.1    94   52.5  12.0     S   2.00  23.0     S   49.1   54.4   49.3   47.3  29.763  0.00  0.00     0     0.00      0     0.0  0.00   0.0   0.075   0.000   69.9    54   52.5   68.5   9.95  .0735    0.000   204    7    100.0   10 
10/25/21  7:40p   54.3   54.3   54.1    94   52.6  12.0     S   2.00  25.0   SSW   49.2   54.5   49.4   47.4  29.767  0.00  0.00     0     0.00      0     0.0  0.00   0.0   0.074   0.000   69.9    54   52.5   68.5   9.95  .0736    0.000   203    7    100.0   10 
10/25/21  7:50p   54.3   54.3   54.2    94   52.6  12.0   SSW   2.00  22.0     S   49.2   54.5   49.4   47.4  29.768  0.00  0.00     0     0.00      0     0.0  0.00   0.0   0.074   0.000   69.8    54   52.4   68.5   9.96  .0736    0.000   203    7    100.0   10 
10/25/21  8:00p   54.3   54.4   54.3    94   52.6  11.0   SSW   1.83  21.0   SSE   49.8   54.5   50.0   48.0  29.770  0.00  0.00     0     0.00      0     0.0  0.00   0.0   0.074   0.000   69.8    54   52.4   68.5   9.96  .0736    0.001   202    7    100.0   10 
10/25/21  8:10p   54.3   54.4   54.3    94   52.6  13.0   SSW   2.17  22.0     N   48.8   54.5   49.0   47.1  29.768  0.00  0.00     0     0.00      0     0.0  0.00   0.0   0.074   0.000   69.8    54   52.4   68.5   9.96  .0736    0.000   204    7    100.0   10 
10/25/21  8:20p   54.3   54.3   54.2    94   52.6  13.0     S   2.17  21.0     N   48.8   54.5   49.0   47.1  29.774  0.00  0.00     0     0.00      0     0.0  0.00   0.0   0.074   0.000   69.7    54   52.3   68.4   9.96  .0736    0.000   203    7    100.0   10 
10/25/21  8:30p   54.3   54.4   54.3    94   52.6  13.0   SSW   2.17  23.0   SSE   48.8   54.5   49.0   47.1  29.776  0.00  0.00     0     0.00      0     0.0  0.00   0.0   0.074   0.000   69.7    54   52.3   68.4   9.96  .0736    0.000   204    7    100.0   10 
10/25/21  8:40p   54.4   54.4   54.3    94   52.7  13.0     S   2.17  24.0   SSE   48.9   54.6   49.1   47.2  29.772  0.00  0.00     0     0.00      0     0.0  0.00   0.0   0.074   0.000   69.7    53   51.8   68.3   9.86  .0736    0.000   202    7    100.0   10 
10/25/21  8:50p   54.3   54.4   54.3    94   52.6  12.0   SSW   2.00  20.0   SSW   49.2   54.5   49.4   47.4  29.776  0.00  0.00     0     0.00      0     0.0  0.00   0.0   0.074   0.000   69.6    53   51.7   68.3   9.86  .0737    0.000   203    7    100.0   10 
10/25/21  9:00p   54.2   54.3   54.2    94   52.5  12.0   SSW   2.00  22.0     N   49.1   54.4   49.3   47.3  29.777  0.00  0.00     0     0.00      0     0.0  0.00   0.0   0.075   0.000   69.6    53   51.7   68.3   9.86  .0737    0.001   205    7    100.0   10 
10/25/21  9:10p   54.3   54.3   54.2    94   52.6  12.0   SSW   2.00  24.0   SSE   49.2   54.5   49.4   47.4  29.779  0.00  0.00     0     0.00      0     0.0  0.00   0.0   0.074   0.000   69.5    53   51.6   68.2   9.86  .0737    0.000   202    7    100.0   10 
10/25/21  9:20p   54.3   54.4   54.2    94   52.6  12.0   SSW   2.00  21.0     S   49.2   54.5   49.4   47.4  29.783  0.00  0.00     0     0.00      0     0.0  0.00   0.0   0.074   0.000   69.4    53   51.5   68.1   9.86  .0737    0.000   203    7    100.0   10 
10/25/21  9:30p   54.1   54.3   54.1    94   52.4  12.0     S   2.00  21.0   SSE   49.0   54.3   49.2   47.2  29.785  0.00  0.00     0     0.00      0     0.0  0.00   0.0   0.076   0.000   69.4    53   51.5   68.1   9.86  .0737    0.000   201    7    100.0   10 
10/25/21  9:40p   54.2   54.2   54.1    94   52.5  13.0   SSW   2.17  23.0   SSE   48.6   54.4   48.8   46.9  29.782  0.00  0.00     0     0.00      0     0.0  0.00   0.0   0.075   0.000   69.4    53   51.5   68.1   9.86  .0737    0.000   205    7    100.0   10 
10/25/21  9:50p   54.3   54.4   54.2    94   52.6  13.0   SSW   2.17  24.0   SSW   48.8   54.5   49.0   47.1  29.783  0.00  0.00     0     0.00      0     0.0  0.00   0.0   0.074   0.000   69.3    53   51.4   68.1   9.86  .0737    0.000   203    7    100.0   10 
10/25/21 10:00p   54.4   54.4   54.3    94   52.7  13.0   SSW   2.17  24.0   SSW   48.9   54.6   49.1   47.2  29.785  0.01  0.00     0     0.00      0     0.0  0.00   0.0   0.074   0.000   69.3    53   51.4   68.1   9.86  .0737    0.001   202    7    100.0   10 
10/25/21 10:10p   54.3   54.5   54.3    95   52.9  14.0   SSW   2.33  22.0   SSW   48.4   54.5   48.6   46.8  29.793  0.05  0.56     0     0.00      0     0.0  0.00   0.0   0.074   0.000   69.2    53   51.3   68.0   9.87  .0738    0.000   201    7    100.0   10 
10/25/21 10:20p   52.2   54.4   52.1    94   50.5  17.0   SSW   2.83  29.0   SSW   45.1   52.5   45.4   43.6  29.809  0.03  0.34     0     0.00      0     0.0  0.00   0.0   0.089   0.000   69.2    53   51.3   68.0   9.87  .0738    0.000   200    7    100.0   10 
10/25/21 10:30p   52.3   52.3   52.0    95   50.9  12.0   SSW   2.00  22.0   SSE   46.9   52.6   47.2   45.1  29.804  0.03  0.41     0     0.00      0     0.0  0.00   0.0   0.088   0.000   69.1    53   51.2   67.9   9.87  .0738    0.000   203    7    100.0   10 
10/25/21 10:40p   52.5   52.5   52.3    95   51.1  12.0   SSW   2.00  20.0   SSW   47.2   52.8   47.5   45.4  29.798  0.02  0.68     0     0.00      0     0.0  0.00   0.0   0.087   0.000   69.1    53   51.2   67.9   9.87  .0738    0.000   204    7    100.0   10 
10/25/21 10:50p   53.2   53.2   52.5    95   51.8  15.0   SSW   2.50  24.0   SSE   46.8   53.5   47.1   45.2  29.795  0.00  0.00     0     0.00      0     0.0  0.00   0.0   0.082   0.000   69.0    53   51.2   67.8   9.87  .0738    0.000   203    7    100.0   10 
10/25/21 11:00p   53.2   53.4   53.2    95   51.8  14.0   SSW   2.33  24.0     N   47.1   53.5   47.4   45.5  29.801  0.00  0.00     0     0.00      0     0.0  0.00   0.0   0.082   0.000   69.0    53   51.2   67.8   9.87  .0738    0.001   203    7    100.0   10 
10/25/21 11:10p   53.1   53.3   53.1    95   51.7  18.0   SSW   3.00  25.0   SSW   45.8   53.4   46.1   44.4  29.802  0.00  0.00     0     0.00      0     0.0  0.00   0.0   0.083   0.000   68.9    53   51.1   67.8   9.87  .0738    0.000   201    7    100.0   10 
10/25/21 11:20p   53.2   53.3   53.0    95   51.8  15.0   SSW   2.50  30.0   SSE   46.8   53.5   47.1   45.2  29.800  0.00  0.00     0     0.00      0     0.0  0.00   0.0   0.082   0.000   68.9    53   51.1   67.8   9.87  .0738    0.000   203    7    100.0   10 
10/25/21 11:30p   52.8   53.2   52.8    95   51.4  11.0   SSW   1.83  20.0   SSE   48.0   53.1   48.3   46.2  29.803  0.00  0.00     0     0.00      0     0.0  0.00   0.0   0.085   0.000   68.9    53   51.1   67.8   9.87  .0738    0.000   205    7    100.0   10 
10/25/21 11:40p   52.6   52.8   52.5    94   50.9  10.0   SSW   1.67  20.0    SW   48.3   52.9   48.6   46.4  29.803  0.00  0.00     0     0.00      0     0.0  0.00   0.0   0.086   0.000   68.8    53   51.0   67.7   9.87  .0739    0.000   203    7    100.0   10 
10/25/21 11:50p   53.0   53.0   52.6    94   51.3  14.0   SSW   2.33  23.0     N   46.9   53.3   47.2   45.3  29.806  0.00  0.00     0     0.00      0     0.0  0.00   0.0   0.083   0.000   68.8    53   51.0   67.7   9.87  .0739    0.000   204    7    100.0   10 
10/26/21 12:00a   52.3   53.0   52.3    94   50.6  11.0     S   1.83  19.0   SSW   47.4   52.6   47.7   45.6  29.808  0.00  0.00     0     0.00      0     0.0  0.00   0.0   0.088   0.000   68.7    53   50.9   67.6   9.88  .0739    0.000   203    7    100.0   10 
10/26/21 12:10a   52.3   52.3   52.2    94   50.6  10.0     S   1.67  19.0   SSW   48.0   52.6   48.3   46.1  29.808  0.00  0.00     0     0.00      0     0.0  0.00   0.0   0.088   0.000   68.7    53   50.9   67.6   9.88  .0739    0.000   201    7    100.0   10 
10/26/21 12:20a   52.3   52.4   52.2    94   50.6   9.0     S   1.50  17.0     N   48.6   52.6   48.9   46.6  29.807  0.00  0.00     0     0.00      0     0.0  0.00   0.0   0.088   0.000   68.6    53   50.8   67.5   9.88  .0739    0.000   202    7    100.0   10 
10/26/21 12:30a   52.6   52.6   52.3    94   50.9   9.0     S   1.50  22.0    SW   48.9   52.9   49.2   46.9  29.808  0.00  0.00     0     0.00      0     0.0  0.00   0.0   0.086   0.000   68.6    53   50.8   67.5   9.88  .0739    0.000   204    7    100.0   10 
10/26/21 12:40a   52.9   52.9   52.6    94   51.2  10.0   SSW   1.67  19.0     S   48.7   53.2   49.0   46.8  29.813  0.00  0.00     0     0.00      0     0.0  0.00   0.0   0.084   0.000   68.6    53   50.8   67.5   9.88  .0739    0.000   205    7    100.0   10 
10/26/21 12:50a   53.1   53.1   52.9    94   51.4  10.0   SSW   1.67  20.0     N   48.9   53.4   49.2   47.0  29.813  0.00  0.00     0     0.00      0     0.0  0.00   0.0   0.083   0.000   68.5    53   50.7   67.4   9.88  .0739    0.000   204    7    100.0   10 
10/26/21  1:00a   53.3   53.3   53.2    94   51.6  12.0   SSW   2.00  24.0   SSW   48.1   53.5   48.3   46.2  29.811  0.00  0.00     0     0.00      0     0.0  0.00   0.0   0.081   0.000   68.5    53   50.7   67.4   9.88  .0739    0.000   204    7    100.0   10 
10/26/21  1:10a   53.3   53.3   53.2    94   51.6  10.0     S   1.67  19.0   SSE   49.2   53.5   49.4   47.2  29.813  0.00  0.00     0     0.00      0     0.0  0.00   0.0   0.081   0.000   68.4    53   50.6   67.3   9.88  .0740    0.000   200    7    100.0   10 
10/26/21  1:20a   53.4   53.5   53.3    94   51.7  12.0     S   2.00  19.0   SSW   48.2   53.6   48.4   46.3  29.814  0.00  0.00     0     0.00      0     0.0  0.00   0.0   0.081   0.000   68.4    53   50.6   67.3   9.88  .0740    0.000   205    7    100.0   10 
10/26/21  1:30a   53.5   53.5   53.4    93   51.5  13.0     S   2.17  26.0   SSW   47.8   53.7   48.0   46.0  29.813  0.00  0.00     0     0.00      0     0.0  0.00   0.0   0.080   0.000   68.4    53   50.6   67.3   9.88  .0740    0.000   202    7    100.0   10 
10/26/21  1:40a   53.4   53.5   53.4    93   51.4  12.0     S   2.00  21.0   SSE   48.2   53.6   48.4   46.3  29.818  0.00  0.00     0     0.00      0     0.0  0.00   0.0   0.081   0.000   68.3    53   50.5   67.3   9.88  .0740    0.000   204    7    100.0   10 
10/26/21  1:50a   53.5   53.5   53.4    93   51.5  13.0   SSW   2.17  27.0     S   47.8   53.7   48.0   46.0  29.817  0.00  0.00     0     0.00      0     0.0  0.00   0.0   0.080   0.000   68.3    53   50.5   67.3   9.88  .0740    0.000   203    7    100.0   10 
10/26/21  2:00a   53.7   53.8   53.4    93   51.7  13.0   SSW   2.17  26.0   SSW   48.1   53.9   48.3   46.3  29.814  0.00  0.00     0     0.00      0     0.0  0.00   0.0   0.078   0.000   68.2    53   50.4   67.2   9.89  .0740    0.001   205    7    100.0   10 
10/26/21  2:10a   53.7   53.8   53.6    93   51.7  14.0     S   2.33  30.0    SW   47.7   53.9   47.9   46.0  29.813  0.00  0.00     0     0.00      0     0.0  0.00   0.0   0.078   0.000   68.2    53   50.4   67.2   9.89  .0740    0.000   202    7    100.0   10 
10/26/21  2:20a   53.7   53.7   53.6    93   51.7  13.0     S   2.17  23.0   SSE   48.1   53.9   48.3   46.3  29.810  0.00  0.00     0     0.00      0     0.0  0.00   0.0   0.078   0.000   68.2    54   50.9   67.3  10.02  .0740    0.000   202    7    100.0   10 
10/26/21  2:30a   53.7   53.8   53.7    93   51.7  12.0     S   2.00  29.0   SSW   48.5   53.9   48.7   46.6  29.812  0.00  0.00     0     0.00      0     0.0  0.00   0.0   0.078   0.000   68.1    54   50.8   67.2  10.03  .0740    0.000   202    7    100.0   10 
10/26/21  2:40a   53.8   53.8   53.6    93   51.8  14.0     S   2.33  28.0   SSW   47.9   54.0   48.1   46.2  29.811  0.00  0.00     0     0.00      0     0.0  0.00   0.0   0.078   0.000   68.1    54   50.8   67.2  10.03  .0740    0.000   201    7    100.0   10 
10/26/21  2:50a   53.8   53.8   53.7    93   51.8  15.0   SSW   2.50  30.0   SSE   47.5   54.0   47.7   45.8  29.811  0.00  0.00     0     0.00      0     0.0  0.00   0.0   0.078   0.000   68.0    54   50.7   67.1  10.03  .0740    0.000   201    7    100.0   10 
10/26/21  3:00a   53.7   53.8   53.6    92   51.4  15.0     S   2.50  27.0   SSW   47.4   53.9   47.6   45.7  29.808  0.00  0.00     0     0.00      0     0.0  0.00   0.0   0.078   0.000   68.0    54   50.7   67.1  10.03  .0740    0.001   202    7    100.0   10 
10/26/21  3:10a   53.8   53.8   53.7    92   51.5  15.0   SSW   2.50  32.0     S   47.5   53.9   47.6   45.7  29.814  0.00  0.00     0     0.00      0     0.0  0.00   0.0   0.078   0.000   68.0    54   50.7   67.1  10.03  .0740    0.000   201    7    100.0   10 
10/26/21  3:20a   53.8   53.9   53.8    92   51.5  14.0   SSW   2.33  28.0   SSE   47.9   53.9   48.0   46.1  29.806  0.00  0.00     0     0.00      0     0.0  0.00   0.0   0.078   0.000   67.9    54   50.6   67.0  10.03  .0740    0.000   204    7    100.0   10 
10/26/21  3:30a   53.8   53.8   53.7    92   51.5  13.0   SSW   2.17  24.0   SSW   48.2   53.9   48.3   46.3  29.799  0.00  0.00     0     0.00      0     0.0  0.00   0.0   0.078   0.000   67.9    54   50.6   67.0  10.03  .0740    0.000   201    7    100.0   10 
10/26/21  3:40a   54.1   54.2   53.8    92   51.8  18.0   SSW   3.00  35.0     S   47.0   54.2   47.1   45.4  29.806  0.00  0.00     0     0.00      0     0.0  0.00   0.0   0.076   0.000   67.9    54   50.6   67.0  10.03  .0740    0.000   202    7    100.0   10 
10/26/21  3:50a   53.5   54.1   53.5    91   50.9  17.0   SSW   2.83  28.0     N   46.6   53.6   46.7   44.9  29.807  0.00  0.00     0     0.00      0     0.0  0.00   0.0   0.080   0.000   67.8    54   50.5   66.9  10.04  .0740    0.000   203    7    100.0   10 
10/26/21  4:00a   53.5   53.5   53.4    92   51.2  12.0     S   2.00  24.0   SSE   48.3   53.7   48.5   46.4  29.804  0.00  0.00     0     0.00      0     0.0  0.00   0.0   0.080   0.000   67.8    54   50.5   66.9  10.04  .0740    0.001   203    7    100.0   10 
10/26/21  4:10a   53.6   53.6   53.3    91   51.0  13.0   SSW   2.17  23.0   SSE   48.0   53.7   48.1   46.1  29.803  0.00  0.00     0     0.00      0     0.0  0.00   0.0   0.079   0.000   67.8    54   50.5   66.9  10.04  .0740    0.000   202    7    100.0   10 
10/26/21  4:20a   53.3   53.6   53.3    91   50.7  13.0   SSW   2.17  28.0     N   47.6   53.4   47.7   45.7  29.796  0.01  0.00     0     0.00      0     0.0  0.00   0.0   0.081   0.000   67.7    54   50.5   66.8  10.04  .0740    0.000   203    7    100.0   10 
10/26/21  4:30a   53.5   53.5   53.3    92   51.2  17.0   SSW   2.83  29.0   SSW   46.6   53.7   46.8   45.0  29.803  0.01  0.06     0     0.00      0     0.0  0.00   0.0   0.080   0.000   67.7    54   50.5   66.8  10.04  .0740    0.000   201    7    100.0   10 
10/26/21  4:40a   53.2   53.7   53.2    93   51.2  16.0   SSW   2.67  27.0     S   46.5   53.4   46.7   44.9  29.803  0.00  0.04     0     0.00      0     0.0  0.00   0.0   0.082   0.000   67.7    54   50.5   66.8  10.04  .0740    0.000   204    7    100.0   10 
10/26/21  4:50a   53.3   53.4   53.2    93   51.3  15.0     S   2.50  23.0     S   46.9   53.5   47.1   45.2  29.804  0.01  0.04     0     0.00      0     0.0  0.00   0.0   0.081   0.000   67.6    54   50.4   66.7  10.05  .0740    0.000   200    7    100.0   10 
10/26/21  5:00a   53.2   53.4   53.2    93   51.2  16.0     S   2.67  28.0   SSW   46.5   53.4   46.7   44.9  29.803  0.01  0.00     0     0.00      0     0.0  0.00   0.0   0.082   0.000   67.6    54   50.4   66.7  10.05  .0740    0.001   203    7    100.0   10 
10/26/21  5:10a   53.3   53.4   53.2    94   51.6  15.0   SSW   2.50  24.0   SSE   46.9   53.5   47.1   45.2  29.798  0.00  0.00     0     0.00      0     0.0  0.00   0.0   0.081   0.000   67.5    54   50.3   66.6  10.05  .0740    0.000   201    7    100.0   10 
10/26/21  5:20a   53.1   53.3   53.0    94   51.4  16.0   SSW   2.67  27.0     S   46.4   53.4   46.7   44.9  29.797  0.01  0.04     0     0.00      0     0.0  0.00   0.0   0.083   0.000   67.5    54   50.3   66.6  10.05  .0740    0.000   200    7    100.0   10 
10/26/21  5:30a   53.3   53.3   53.0    95   51.9  18.0     S   3.00  29.0   SSW   46.1   53.6   46.4   44.7  29.794  0.00  0.04     0     0.00      0     0.0  0.00   0.0   0.081   0.000   67.5    54   50.3   66.6  10.05  .0740    0.000   202    7    100.0   10 
10/26/21  5:40a   53.4   53.5   53.2    94   51.7  20.0   SSW   3.33  32.0     S   45.7   53.6   45.9   44.3  29.793  0.01  0.04     0     0.00      0     0.0  0.00   0.0   0.081   0.000   67.4    54   50.2   66.4  10.05  .0741    0.000   202    7    100.0   10 
10/26/21  5:50a   52.9   53.3   52.9    94   51.2  19.0     S   3.17  33.0     S   45.4   53.2   45.7   44.0  29.791  0.00  0.00     0     0.00      0     0.0  0.00   0.0   0.084   0.000   67.5    54   50.3   66.6  10.05  .0740    0.000   205    7    100.0   10 
10/26/21  6:00a   52.6   53.0   52.6    94   50.9  17.0   SSW   2.83  35.0     S   45.6   52.9   45.9   44.1  29.794  0.00  0.00     0     0.00      0     0.0  0.00   0.0   0.086   0.000   67.5    54   50.3   66.6  10.05  .0740    0.001   204    7    100.0   10 
10/26/21  6:10a   52.8   52.9   52.6    94   51.1  17.0     S   2.83  37.0     S   45.8   53.1   46.1   44.3  29.791  0.00  0.00     0     0.00      0     0.0  0.00   0.0   0.085   0.000   67.6    54   50.4   66.7  10.05  .0740    0.000   203    7    100.0   10 
10/26/21  6:20a   52.7   52.9   52.7    94   51.0  17.0   SSW   2.83  29.0   SSW   45.7   53.0   46.0   44.2  29.790  0.01  0.00     0     0.00      0     0.0  0.00   0.0   0.085   0.000   67.7    54   50.5   66.8  10.04  .0740    0.000   203    7    100.0   10 
10/26/21  6:30a   52.8   52.9   52.7    95   51.4  14.0   SSW   2.33  24.0   SSE   46.7   53.1   47.0   45.1  29.788  0.00  0.00     0     0.00      0     0.0  0.00   0.0   0.085   0.000   67.9    54   50.6   67.0  10.03  .0740    0.000   204    7    100.0   10 
10/26/21  6:40a   52.8   52.9   52.7    95   51.4  15.0   SSW   2.50  26.0     S   46.4   53.1   46.7   44.8  29.779  0.01  0.04     0     0.00      0     0.0  0.00   0.0   0.085   0.000   68.0    54   50.7   67.1  10.03  .0739    0.000   203    7    100.0   10 
10/26/21  6:50a   52.9   52.9   52.7    95   51.5  16.0   SSW   2.67  33.0     S   46.2   53.2   46.5   44.7  29.775  0.00  0.00     0     0.00      0     0.0  0.00   0.0   0.084   0.000   68.2    54   50.9   67.3  10.02  .0739    0.000   203    7    100.0   10 
10/26/21  7:00a   52.9   53.0   52.8    94   51.2  16.0   SSW   2.67  36.0   SSE   46.2   53.2   46.5   44.7  29.774  0.00  0.00     0     0.00      0     0.0  0.00   0.0   0.084   0.000   68.3    54   51.0   67.3  10.02  .0739    0.001   203    7    100.0   10 
10/26/21  7:10a   53.0   53.0   52.9    94   51.3  14.0   SSW   2.33  25.0     S   46.9   53.3   47.2   45.3  29.767  0.00  0.00     0     0.00      0     0.0  0.00   0.0   0.083   0.000   68.5    54   51.2   67.5  10.01  .0738    0.000   203    7    100.0   10 
10/26/21  7:20a   53.2   53.2   53.0    94   51.5  14.0   SSW   2.33  26.0     S   47.1   53.4   47.3   45.4  29.768  0.00  0.00     0     0.00      0     0.0  0.00   0.0   0.082   0.000   68.6    54   51.3   67.6  10.01  .0738    0.000   204    7    100.0   10 
10/26/21  7:30a   53.3   53.3   53.2    94   51.6  14.0   SSW   2.33  25.0   SSW   47.3   53.5   47.5   45.6  29.762  0.01  0.00     0     0.00      0     0.0  0.00   0.0   0.081   0.000   68.8    54   51.5   67.8  10.00  .0737    0.000   204    7    100.0   10 
10/26/21  7:40a   53.5   53.5   53.2    94   51.8  15.0     S   2.50  31.0   SSE   47.2   53.7   47.4   45.5  29.763  0.00  0.00     0     0.00      0     0.0  0.00   0.0   0.080   0.000   68.8    54   51.5   67.8  10.00  .0737    0.000   204    7    100.0   10 
10/26/21  7:50a   53.4   53.5   53.3    94   51.7  16.0   SSW   2.67  31.0   SSW   46.7   53.6   46.9   45.2  29.760  0.00  0.00     3     0.04      5     0.0  0.00   0.0   0.081   0.000   69.0    54   51.7   67.9   9.99  .0737    0.000   200    7    100.0   10 
10/26/21  8:00a   53.4   53.5   53.4    94   51.7  16.0   SSW   2.67  33.0   SSE   46.7   53.6   46.9   45.2  29.759  0.00  0.00     6     0.09      7     0.0  0.00   0.0   0.081   0.000   69.1    54   51.8   68.0   9.99  .0737    0.001   203    7    100.0   10 
10/26/21  8:10a   53.4   53.5   53.3    94   51.7  19.0   SSW   3.17  42.0     S   45.9   53.6   46.1   44.6  29.766  0.01  0.00    10     0.14     11     0.0  0.00   0.0   0.081   0.000   69.3    54   51.9   68.1   9.98  .0737    0.000   202    7    100.0   10 
10/26/21  8:20a   53.2   53.5   53.2    94   51.5  18.0   SSW   3.00  26.0   SSW   45.9   53.4   46.1   44.6  29.778  0.00  0.00    12     0.17     14     0.0  0.00   0.0   0.082   0.000   69.4    54   52.0   68.2   9.97  .0737    0.000   202    7    100.0   10 
10/26/21  8:30a   53.2   53.3   53.1    94   51.5  16.0   SSW   2.67  28.0     S   46.5   53.4   46.7   45.1  29.781  0.00  0.00    14     0.20     18     0.0  0.00   0.0   0.082   0.000   69.6    54   52.2   68.3   9.97  .0736    0.000   202    7    100.0   10 
10/26/21  8:40a   53.2   53.3   53.2    94   51.5  16.0   SSW   2.67  29.0   SSW   46.5   53.4   46.7   45.3  29.783  0.00  0.00    20     0.29     25     0.0  0.00   0.0   0.082   0.000   69.7    54   52.3   68.4   9.96  .0736    0.000   204    7    100.0   10 
10/26/21  8:50a   53.3   53.3   53.2    95   51.9  15.0   SSW   2.50  27.0    SW   46.9   53.6   47.2   46.6  29.787  0.00  0.00    23     0.33     25     0.0  0.00   0.0   0.081   0.000   69.7    54   52.3   68.4   9.96  .0736    0.000   203    7    100.0   10 
10/26/21  9:00a   53.6   53.6   53.3    95   52.2  17.0   SSW   2.83  31.0     S   46.7   53.8   46.9   46.5  29.789  0.01  0.00    29     0.42     33     0.0  0.00   0.0   0.079   0.000   69.7    54   52.3   68.4   9.96  .0736    0.001   199    7    100.0   10 
10/26/21  9:10a   53.7   53.8   53.5    95   52.3  17.0     S   2.83  32.0     N   46.8   53.9   47.0   46.8  29.794  0.00  0.00    35     0.50     40     0.0  0.00   0.0   0.078   0.000   69.7    54   52.3   68.4   9.96  .0737    0.000   203    7    100.0   10 
10/26/21  9:20a   53.8   53.8   53.7    95   52.4  18.0   SSW   3.00  32.0   SSE   46.7   54.0   46.9   46.7  29.807  0.01  0.00    36     0.52     47     0.0  0.00   0.0   0.078   0.000   69.7    54   52.3   68.4   9.96  .0737    0.000   200    7    100.0   10 
10/26/21  9:30a   53.6   53.8   53.6    95   52.2  19.0     S   3.17  32.0     S   46.2   53.8   46.4   46.5  29.807  0.00  0.00    47     0.67     65     0.0  0.00   0.0   0.079   0.000   69.6    54   52.2   68.3   9.97  .0737    0.000   202    7    100.0   10 
10/26/21  9:40a   53.9   53.9   53.6    95   52.5  18.0   SSW   3.00  33.0     S   46.8   54.1   47.0   47.3  29.813  0.00  0.00    57     0.82     69     0.0  0.00   0.0   0.077   0.000   69.6    54   52.2   68.3   9.97  .0737    0.000   203    7    100.0   10 
10/26/21  9:50a   53.8   53.9   53.8    96   52.7  21.0   SSW   3.50  32.0     S   46.0   54.1   46.3   46.4  29.807  0.01  0.00    52     0.75     63     0.0  0.00   0.0   0.078   0.000   69.5    54   52.1   68.3   9.97  .0737    0.000   203    7    100.0   10 
10/26/21 10:00a   53.8   53.8   53.8    96   52.7  22.0   SSW   3.67  33.0     S   45.8   54.1   46.1   45.8  29.808  0.01  0.07    36     0.52     47     0.0  0.00   0.0   0.078   0.000   69.5    53   51.6   68.2   9.86  .0737    0.001   202    7    100.0   10 
10/26/21 10:10a   54.0   54.0   53.8    96   52.9  23.0   SSW   3.83  40.0     S   45.8   54.2   46.0   45.8  29.806  0.01  0.07    42     0.60     60     0.0  0.00   0.0   0.076   0.000   69.4    53   51.5   68.1   9.86  .0738    0.000   202    7    100.0   10 
10/26/21 10:20a   54.1   54.1   53.9    96   53.0  24.0   SSW   4.00  42.0   SSE   45.7   54.3   45.9   46.0  29.814  0.00  0.04    55     0.79     63     0.0  0.00   0.0   0.076   0.000   69.4    53   51.5   68.1   9.86  .0738    0.000   204    7    100.0   10 
10/26/21 10:30a   54.2   54.2   54.0    96   53.1  27.0   SSW   4.50  38.0   SSW   45.3   54.4   45.5   45.8  29.815  0.01  0.04    66     0.95     84     0.1  0.01   0.5   0.075   0.000   69.4    53   51.5   68.1   9.86  .0738    0.000   202    7    100.0   10 
10/26/21 10:40a   54.1   54.2   54.1    96   53.0  26.0   SSW   4.33  42.0     S   45.3   54.3   45.5   45.8  29.823  0.00  0.00    71     1.02     84     0.0  0.00   0.5   0.076   0.000   69.3    53   51.4   68.1   9.86  .0738    0.000   203    7    100.0   10 
10/26/21 10:50a   54.0   54.1   53.9    97   53.2  25.0   SSW   4.17  40.0   SSW   45.4   54.3   45.7   45.7  29.829  0.00  0.00    55     0.79     62     0.0  0.00   0.0   0.076   0.000   69.3    53   51.4   68.1   9.86  .0738    0.000   203    7    100.0   10 
10/26/21 11:00a   53.9   54.0   53.9    97   53.1  24.0   SSW   4.00  37.0    SW   45.5   54.2   45.8   45.9  29.838  0.00  0.00    59     0.85     65     0.0  0.00   0.0   0.077   0.000   69.2    53   51.3   68.0   9.87  .0739    0.002   203    7    100.0   10 
10/26/21 11:10a   53.8   53.9   53.7    97   53.0  21.0   SSW   3.50  36.0    SW   46.0   54.1   46.3   46.4  29.852  0.00  0.00    64     0.92     77     0.2  0.01   0.5   0.078   0.000   69.2    53   51.3   68.0   9.87  .0739    0.000   204    7    100.0   10 
10/26/21 11:20a   53.7   53.8   53.7    97   52.9  15.0   SSW   2.50  22.0     S   47.4   54.0   47.7   48.1  29.864  0.01  0.00    77     1.10     90     0.5  0.04   0.6   0.078   0.000   69.2    53   51.3   68.0   9.87  .0739    0.000   203    7    100.0   10 
10/26/21 11:30a   53.9   54.0   53.8    97   53.1  13.0   SSW   2.17  23.0   SSE   48.3   54.2   48.6   49.1  29.869  0.00  0.00    80     1.15    105     0.4  0.03   0.7   0.077   0.000   69.2    53   51.3   68.0   9.87  .0740    0.000   204    7    100.0   10 
10/26/21 11:40a   54.0   54.0   53.9    97   53.2  13.0   SSW   2.17  22.0     S   48.4   54.3   48.7   48.9  29.875  0.00  0.00    71     1.02     98     0.3  0.02   0.7   0.076   0.000   69.1    53   51.2   67.9   9.87  .0740    0.000   200    7    100.0   10 
10/26/21 11:50a   54.1   54.2   54.0    97   53.3  14.0     S   2.33  24.0     S   48.2   54.4   48.5   49.5  29.878  0.00  0.00   105     1.51    114     0.7  0.05   0.8   0.076   0.000   69.2    53   51.3   68.0   9.87  .0740    0.000   199    7    100.0   10 
10/26/21 12:00p   54.0   54.1   54.0    97   53.2  16.0     S   2.67  28.0     S   47.4   54.3   47.7   48.6  29.887  0.00  0.00   106     1.52    134     0.7  0.05   0.9   0.076   0.000   69.2    55   52.3   68.1  10.17  .0740    0.002   202    7    100.0   10 
10/26/21 12:10p   54.0   54.1   53.9    97   53.2  15.0     S   2.50  25.0     S   47.7   54.3   48.0   49.0  29.896  0.00  0.00   110     1.58    123     0.8  0.06   0.8   0.076   0.000   69.2    55   52.3   68.1  10.17  .0740    0.000   203    7    100.0   10 
10/26/21 12:20p   54.2   54.2   54.0    97   53.4  15.0   SSW   2.50  24.0   SSE   47.9   54.5   48.2   49.6  29.898  0.00  0.00   128     1.83    142     0.9  0.06   1.0   0.075   0.000   69.3    56   52.9   68.3  10.36  .0740    0.000   201    7    100.0   10 
10/26/21 12:30p   54.4   54.4   54.2    97   53.6  16.0   SSW   2.67  25.0     S   47.9   54.7   48.2   49.2  29.899  0.00  0.00   113     1.62    165     0.8  0.06   1.1   0.074   0.000   69.3    56   52.9   68.3  10.36  .0740    0.000   203    7    100.0   10 
10/26/21 12:40p   54.6   54.6   54.4    97   53.8  16.0     S   2.67  26.0   SSE   48.1   54.9   48.4   51.3  29.897  0.00  0.00   208     2.98    257     1.4  0.10   1.6   0.072   0.000   69.3    56   52.9   68.3  10.36  .0740    0.000   201    7    100.0   10 
10/26/21 12:50p   54.7   54.8   54.6    97   53.9  17.0     S   2.83  27.0   SSE   47.9   55.0   48.2   51.4  29.903  0.00  0.00   228     3.27    239     1.5  0.11   1.5   0.072   0.000   69.3    56   52.9   68.3  10.36  .0740    0.000   202    7    100.0   10 
10/26/21  1:00p   54.6   54.8   54.6    97   53.8  16.0   SSW   2.67  23.0   SSW   48.1   54.9   48.4   51.7  29.900  0.00  0.00   229     3.28    239     1.5  0.11   1.6   0.072   0.000   69.4    56   53.0   68.4  10.36  .0739    0.004   203    7    100.0   10 
10/26/21  1:10p   54.7   54.7   54.6    97   53.9  16.0   SSW   2.67  22.0     S   48.2   55.0   48.5   51.6  29.903  0.00  0.00   222     3.18    239     1.5  0.11   1.6   0.072   0.000   69.5    55   52.6   68.3  10.16  .0739    0.000   204    7    100.0   10 
10/26/21  1:20p   54.7   54.7   54.6    97   53.9  15.0     S   2.50  23.0   SSE   48.5   55.0   48.8   52.0  29.908  0.00  0.00   221     3.17    239     1.4  0.10   1.5   0.072   0.000   69.5    55   52.6   68.3  10.16  .0740    0.000   204    7    100.0   10 
10/26/21  1:30p   54.6   54.6   54.6    97   53.8  15.0   SSW   2.50  25.0     S   48.4   54.9   48.7   51.5  29.920  0.00  0.00   203     2.91    227     1.3  0.09   1.4   0.072   0.000   69.5    55   52.6   68.3  10.16  .0740    0.000   202    7    100.0   10 
10/26/21  1:40p   54.4   54.6   54.4    96   53.3  15.0   SSW   2.50  23.0   SSW   48.2   54.6   48.4   51.2  29.922  0.00  0.00   203     2.91    214     1.3  0.09   1.3   0.074   0.000   69.6    55   52.7   68.4  10.16  .0740    0.000   203    7    100.0   10 
10/26/21  1:50p   54.6   54.6   54.3    96   53.5  14.0     S   2.33  29.0     S   48.8   54.8   49.0   52.2  29.925  0.00  0.00   213     3.05    221     1.4  0.10   1.4   0.072   0.000   69.6    55   52.7   68.4  10.16  .0740    0.000   203    7    100.0   10 
10/26/21  2:00p   54.8   54.8   54.5    95   53.4  14.0   SSW   2.33  27.0   SSW   49.0   55.0   49.2   52.7  29.922  0.00  0.00   229     3.28    241     1.4  0.10   1.5   0.071   0.000   69.6    55   52.7   68.4  10.16  .0740    0.004   203    7    100.0   10 
10/26/21  2:10p   55.0   55.1   54.7    94   53.3  16.0   SSW   2.67  24.0   SSE   48.6   55.2   48.8   51.2  29.921  0.00  0.00   181     2.59    214     1.2  0.09   1.3   0.069   0.000   69.6    55   52.7   68.4  10.16  .0740    0.000   202    7    100.0   10 
10/26/21  2:20p   55.2   55.2   55.0    94   53.5  18.0   SSW   3.00  31.0     S   48.2   55.4   48.4   50.7  29.931  0.00  0.00   184     2.64    209     1.1  0.08   1.3   0.068   0.000   69.6    55   52.7   68.4  10.16  .0740    0.000   204    7    100.0   10 
10/26/21  2:30p   55.2   55.3   55.2    94   53.5  18.0   SSW   3.00  30.0     S   48.2   55.4   48.4   50.0  29.932  0.00  0.00   145     2.08    160     0.9  0.06   1.0   0.068   0.000   69.6    55   52.7   68.4  10.16  .0740    0.000   203    7    100.0   10 
10/26/21  2:40p   55.1   55.3   55.1    95   53.7  17.0   SSW   2.83  28.0   SSE   48.4   55.3   48.6   50.5  29.934  0.00  0.00   154     2.21    169     0.9  0.06   1.0   0.069   0.000   69.7    55   52.8   68.5  10.16  .0740    0.000   204    7    100.0   10 
Email: AdamSPAM@StormwatchersRetreat.com (To send me email remove the word 'SPAM' from my email address.)